createdAt,value
2022-09-16T00:00:43.728Z,74.74
2022-09-16T00:03:11.217Z,73.73
2022-09-16T00:05:48.833Z,73.07
2022-09-16T00:08:16.521Z,73.88
2022-09-16T00:10:43.921Z,74.58
2022-09-16T00:13:12.271Z,73.88
2022-09-16T00:15:45.635Z,73.80
2022-09-16T00:18:12.362Z,76.29
2022-09-16T00:20:45.043Z,77.65
2022-09-16T00:23:11.716Z,78.50
2022-09-16T00:25:38.333Z,78.67
2022-09-16T00:28:04.963Z,79.39
2022-09-16T00:30:31.557Z,79.11
2022-09-16T00:32:58.266Z,77.85
2022-09-16T00:35:24.842Z,76.63
2022-09-16T00:37:51.472Z,75.68
2022-09-16T00:40:18.189Z,75.49
2022-09-16T00:42:44.824Z,74.60
2022-09-16T00:45:17.968Z,76.25
2022-09-16T00:47:51.378Z,76.31
2022-09-16T00:50:30.205Z,76.59
2022-09-16T00:52:59.552Z,75.37
2022-09-16T00:55:37.150Z,75.82
2022-09-16T00:58:24.754Z,76.79
2022-09-16T01:00:54.111Z,75.03
2022-09-16T01:03:21.107Z,75.66
2022-09-16T01:05:49.041Z,76.38
2022-09-16T01:08:15.683Z,78.05
2022-09-16T01:10:43.005Z,78.75
2022-09-16T01:13:12.837Z,77.77
2022-09-16T01:16:00.541Z,77.11
2022-09-16T01:18:48.677Z,76.38
2022-09-16T01:21:47.483Z,76.42
2022-09-16T01:24:34.504Z,75.71
2022-09-16T01:27:46.109Z,76.27
2022-09-16T01:30:20.054Z,76.30
2022-09-16T01:33:01.366Z,76.80
2022-09-16T01:35:52.743Z,74.91
2022-09-16T01:38:37.878Z,74.79
2022-09-16T01:41:19.838Z,77.38
2022-09-16T01:44:12.543Z,78.10
2022-09-16T01:46:47.779Z,79.93
2022-09-16T01:49:20.238Z,79.62
2022-09-16T01:51:59.185Z,79.75
2022-09-16T01:55:06.862Z,77.76
2022-09-16T01:58:11.301Z,77.78
2022-09-16T02:00:42.745Z,77.62
2022-09-16T02:03:20.206Z,76.32
2022-09-16T02:05:53.829Z,77.85
2022-09-16T02:08:38.820Z,80.79
2022-09-16T02:11:09.806Z,82.88
2022-09-16T02:13:43.966Z,83.78
2022-09-16T02:16:26.890Z,84.65
2022-09-16T02:18:57.968Z,84.91
2022-09-16T02:21:27.623Z,84.98
2022-09-16T02:23:59.995Z,84.53
2022-09-16T02:26:36.946Z,85.37
2022-09-16T02:29:10.790Z,85.29
2022-09-16T02:31:39.118Z,86.24
2022-09-16T02:34:14.919Z,86.41
2022-09-16T02:36:45.657Z,86.86
2022-09-16T02:39:18.269Z,87.23
2022-09-16T02:41:47.117Z,88.28
2022-09-16T02:44:14.027Z,86.87
2022-09-16T02:47:06.896Z,87.05
2022-09-16T02:50:38.098Z,87.91
2022-09-16T02:53:24.778Z,88.25
2022-09-16T02:55:58.890Z,90.16
2022-09-16T02:58:25.549Z,91.00
2022-09-16T03:00:55.249Z,90.54
2022-09-16T03:03:22.409Z,91.46
2022-09-16T03:06:17.043Z,91.08
2022-09-16T03:08:45.241Z,89.60
2022-09-16T03:11:40.687Z,89.13
2022-09-16T03:14:30.558Z,90.37
2022-09-16T03:17:33.649Z,90.71
2022-09-16T03:20:18.837Z,91.75
2022-09-16T03:22:54.547Z,91.63
2022-09-16T03:25:27.113Z,91.25
2022-09-16T03:28:12.366Z,90.99
2022-09-16T03:30:50.261Z,90.23
2022-09-16T03:33:27.097Z,90.31
2022-09-16T03:35:59.895Z,89.68
2022-09-16T03:38:28.660Z,89.63
2022-09-16T03:40:55.607Z,89.61
2022-09-16T03:43:22.190Z,89.13
2022-09-16T03:45:48.992Z,88.88
2022-09-16T03:48:15.650Z,87.93
2022-09-16T03:50:42.316Z,88.42
2022-09-16T03:53:08.974Z,87.95
2022-09-16T03:55:35.608Z,87.45
2022-09-16T03:58:02.269Z,88.87
2022-09-16T04:00:29.204Z,87.18
2022-09-16T04:02:56.299Z,87.40
2022-09-16T04:05:23.006Z,86.58
2022-09-16T04:07:50.075Z,87.70
2022-09-16T04:10:17.016Z,87.09
2022-09-16T04:12:43.761Z,85.77
2022-09-16T04:15:10.771Z,86.09
2022-09-16T04:17:37.647Z,87.89
2022-09-16T04:20:05.922Z,87.90
2022-09-16T04:22:32.626Z,88.03
2022-09-16T04:24:59.272Z,89.09
2022-09-16T04:27:25.883Z,89.28
2022-09-16T04:29:52.522Z,88.84
2022-09-16T04:32:19.188Z,88.69
2022-09-16T04:34:45.929Z,88.96
2022-09-16T04:37:12.511Z,88.94
2022-09-16T04:39:39.212Z,88.42
2022-09-16T04:42:06.998Z,88.52
2022-09-16T04:44:35.095Z,88.63
2022-09-16T04:47:01.681Z,88.11
2022-09-16T04:49:28.214Z,88.64
2022-09-16T04:51:54.903Z,88.72
2022-09-16T04:54:21.566Z,88.60
2022-09-16T04:56:48.235Z,89.13
2022-09-16T04:59:15.192Z,89.73
2022-09-16T05:01:42.083Z,88.93
2022-09-16T05:04:12.934Z,88.24
2022-09-16T05:06:41.566Z,88.27
2022-09-16T05:09:10.460Z,89.37
2022-09-16T05:11:39.015Z,89.88
2022-09-16T05:14:17.237Z,87.49
2022-09-16T05:16:45.441Z,87.91
2022-09-16T05:19:14.439Z,90.07
2022-09-16T05:21:42.066Z,88.07
2022-09-16T05:24:11.526Z,86.67
2022-09-16T05:26:40.443Z,87.52
2022-09-16T05:29:11.149Z,87.78
2022-09-16T05:31:40.740Z,88.54
2022-09-16T05:34:11.356Z,88.53
2022-09-16T05:36:40.934Z,88.61
2022-09-16T05:41:48.998Z,86.86
2022-09-16T05:44:16.050Z,88.84
2022-09-16T05:46:43.921Z,89.93
2022-09-16T05:49:11.537Z,90.10
2022-09-16T05:51:39.451Z,89.38
2022-09-16T05:54:06.265Z,88.93
2022-09-16T05:56:33.308Z,87.99
2022-09-16T05:59:00.988Z,88.01
2022-09-16T06:01:33.093Z,89.67
2022-09-16T06:04:04.982Z,90.99
2022-09-16T06:06:36.901Z,89.46
2022-09-16T06:09:10.998Z,88.13
2022-09-16T06:11:41.661Z,86.93
2022-09-16T06:14:09.044Z,87.31
2022-09-16T06:16:42.749Z,86.12
2022-09-16T06:19:15.234Z,85.05
2022-09-16T06:21:45.562Z,86.09
2022-09-16T06:24:14.293Z,87.58
2022-09-16T06:26:45.642Z,87.74
2022-09-16T06:29:13.562Z,88.61
2022-09-16T06:31:40.722Z,88.86
2022-09-16T06:34:08.623Z,88.22
2022-09-16T06:36:42.721Z,90.80
2022-09-16T06:39:13.410Z,92.93
2022-09-16T06:41:40.096Z,93.13
2022-09-16T06:44:06.683Z,93.07
2022-09-16T06:46:33.455Z,92.00
2022-09-16T06:49:04.571Z,91.15
2022-09-16T06:51:33.108Z,91.22
2022-09-16T06:54:02.238Z,90.73
2022-09-16T06:56:30.284Z,91.31
2022-09-16T06:58:57.399Z,90.25
2022-09-16T07:01:29.740Z,90.12
2022-09-16T07:03:58.429Z,89.63
2022-09-16T07:06:45.233Z,89.86
2022-09-16T07:09:14.767Z,90.93
2022-09-16T07:11:41.507Z,91.22
2022-09-16T07:14:09.564Z,91.61
2022-09-16T07:16:36.141Z,91.08
2022-09-16T07:19:02.889Z,91.12
2022-09-16T07:21:30.737Z,90.30
2022-09-16T07:24:02.765Z,91.26
2022-09-16T07:26:35.229Z,91.00
2022-09-16T07:29:04.317Z,92.15
2022-09-16T07:31:33.864Z,91.66
2022-09-16T07:34:04.309Z,92.78
2022-09-16T07:36:38.792Z,94.67
2022-09-16T07:39:06.333Z,94.36
2022-09-16T07:41:38.460Z,94.67
2022-09-16T07:44:06.509Z,95.15
2022-09-16T07:46:35.486Z,93.97
2022-09-16T07:49:04.244Z,94.58
2022-09-16T07:51:31.493Z,94.70
2022-09-16T07:54:03.534Z,93.16
2022-09-16T07:56:35.260Z,93.80
2022-09-16T07:59:03.850Z,93.72
2022-09-16T08:01:33.417Z,93.49
2022-09-16T08:04:01.018Z,94.49
2022-09-16T08:06:30.623Z,94.78
2022-09-16T08:09:09.815Z,93.53
2022-09-16T08:11:49.755Z,93.34
2022-09-16T08:14:16.590Z,91.69
2022-09-16T08:16:46.639Z,91.63
2022-09-16T08:19:13.734Z,92.00
2022-09-16T08:21:40.357Z,91.84
2022-09-16T08:24:07.084Z,91.02
2022-09-16T08:26:33.684Z,92.25
2022-09-16T08:29:09.337Z,92.24
2022-09-16T08:31:37.533Z,92.70
2022-09-16T08:34:05.052Z,93.51
2022-09-16T08:36:37.539Z,91.92
2022-09-16T08:39:04.506Z,91.89
2022-09-16T08:41:37.045Z,91.73
2022-09-16T08:44:19.222Z,93.05
2022-09-16T08:46:56.035Z,92.62
2022-09-16T08:49:40.078Z,92.99
2022-09-16T08:52:14.465Z,91.25
2022-09-16T08:54:47.426Z,90.68
2022-09-16T08:57:22.394Z,91.30
2022-09-16T08:59:54.736Z,90.84
2022-09-16T09:02:38.804Z,90.00
2022-09-16T09:05:42.747Z,90.14
2022-09-16T09:08:30.715Z,88.57
2022-09-16T09:11:15.583Z,91.13
2022-09-16T09:14:12.589Z,89.90
2022-09-16T09:16:45.656Z,90.61
2022-09-16T09:19:56.062Z,90.20
2022-09-16T09:22:33.152Z,91.32
2022-09-16T09:25:39.623Z,91.29
2022-09-16T09:28:56.890Z,90.27
2022-09-16T09:31:35.033Z,91.97
2022-09-16T09:34:43.391Z,89.76
2022-09-16T09:37:27.152Z,91.93
2022-09-16T09:40:02.070Z,89.76
2022-09-16T09:42:43.672Z,90.41
2022-09-16T09:45:27.961Z,92.05
2022-09-16T09:48:03.605Z,92.34
2022-09-16T09:50:40.188Z,91.67
2022-09-16T09:53:07.084Z,92.69
2022-09-16T09:55:35.056Z,92.54
2022-09-16T09:58:24.253Z,91.67
2022-09-16T10:00:53.456Z,92.18
2022-09-16T10:03:20.359Z,90.83
2022-09-16T10:05:47.922Z,90.15
2022-09-16T10:08:17.680Z,92.29
2022-09-16T10:10:59.923Z,91.96
2022-09-16T10:13:29.850Z,91.91
2022-09-16T10:16:14.641Z,92.01
2022-09-16T10:18:42.410Z,93.43
2022-09-16T10:21:15.385Z,94.17
2022-09-16T10:23:53.011Z,92.85
2022-09-16T10:26:21.498Z,93.91
2022-09-16T10:29:16.019Z,93.92
2022-09-16T10:31:43.609Z,92.82
2022-09-16T10:34:36.103Z,94.34
2022-09-16T10:37:13.149Z,94.65
2022-09-16T10:39:43.359Z,94.96
2022-09-16T10:42:20.130Z,93.81
2022-09-16T10:44:48.334Z,93.28
2022-09-16T10:47:32.607Z,93.20
2022-09-16T10:50:05.722Z,93.52
2022-09-16T10:52:42.445Z,93.54
2022-09-16T10:55:35.353Z,92.01
2022-09-16T10:58:18.006Z,90.09
2022-09-16T11:01:14.249Z,90.77
2022-09-16T11:04:05.964Z,90.96
2022-09-16T11:07:04.564Z,90.01
2022-09-16T11:09:52.886Z,86.80
2022-09-16T11:12:44.364Z,85.09
2022-09-16T11:15:29.768Z,86.71
2022-09-16T11:18:14.820Z,84.66
2022-09-16T11:21:00.241Z,83.66
2022-09-16T11:24:02.758Z,81.68
2022-09-16T11:26:36.900Z,82.75
2022-09-16T11:29:18.524Z,82.51
2022-09-16T11:32:24.376Z,81.79
2022-09-16T11:35:05.073Z,80.64
2022-09-16T11:37:45.309Z,79.71
2022-09-16T11:40:47.832Z,81.38
2022-09-16T11:43:46.429Z,79.46
2022-09-16T11:46:43.723Z,79.93
2022-09-16T11:49:22.572Z,79.12
2022-09-16T11:52:09.407Z,78.20
2022-09-16T11:54:53.944Z,77.62
2022-09-16T11:57:31.124Z,77.41
2022-09-16T12:00:14.214Z,76.80
2022-09-16T12:02:58.451Z,77.75
2022-09-16T12:05:36.995Z,77.97
2022-09-16T12:08:12.965Z,78.25
2022-09-16T12:10:45.676Z,77.98
2022-09-16T12:13:21.361Z,77.17
2022-09-16T12:15:57.336Z,77.09
2022-09-16T12:18:43.087Z,77.00
2022-09-16T12:21:32.813Z,77.35
2022-09-16T12:24:11.881Z,77.05
2022-09-16T12:26:49.056Z,75.47
2022-09-16T12:29:20.197Z,75.86
2022-09-16T12:32:01.538Z,78.14
2022-09-16T12:34:37.654Z,76.23
2022-09-16T12:37:20.479Z,75.05
2022-09-16T12:39:50.067Z,75.59
2022-09-16T12:42:46.694Z,74.95
2022-09-16T12:45:30.433Z,76.28
2022-09-16T12:48:21.445Z,76.38
2022-09-16T12:54:51.154Z,74.00
2022-09-16T12:57:36.251Z,73.40
2022-09-16T13:00:12.241Z,74.61
2022-09-16T13:02:53.117Z,74.15
2022-09-16T13:05:40.201Z,72.54
2022-09-16T13:08:23.330Z,72.71
2022-09-16T13:11:28.424Z,71.79
2022-09-16T13:13:51.329Z,73.82
2022-09-16T13:16:38.433Z,73.86
2022-09-16T13:19:30.489Z,72.35
2022-09-16T13:22:17.471Z,69.86
2022-09-16T13:24:51.781Z,70.04
2022-09-16T13:27:34.593Z,69.89
2022-09-16T13:30:15.159Z,70.02
2022-09-16T13:32:58.508Z,67.64
2022-09-16T13:35:31.269Z,66.18
2022-09-16T13:38:01.834Z,65.78
2022-09-16T13:40:34.150Z,65.08
2022-09-16T13:43:13.413Z,67.48
2022-09-16T13:46:05.798Z,71.07
2022-09-16T13:48:56.448Z,71.01
2022-09-16T13:51:23.672Z,76.18
2022-09-16T13:53:52.404Z,80.68
2022-09-16T13:56:47.897Z,83.22
2022-09-16T13:59:38.218Z,84.49
2022-09-16T14:02:42.606Z,86.54
2022-09-16T14:05:43.072Z,87.33
2022-09-16T14:08:18.507Z,88.30
2022-09-16T14:10:48.292Z,89.08
2022-09-16T14:13:21.052Z,89.57
2022-09-16T14:15:54.338Z,90.07
2022-09-16T14:18:24.487Z,90.04
2022-09-16T14:21:01.406Z,89.75
2022-09-16T14:23:29.652Z,90.40
2022-09-16T14:25:56.381Z,90.42
2022-09-16T14:28:27.922Z,90.56
2022-09-16T14:30:57.261Z,90.88
2022-09-16T14:33:56.469Z,90.37
2022-09-16T14:36:27.104Z,90.29
2022-09-16T14:39:03.032Z,89.92
2022-09-16T14:42:02.738Z,89.50
2022-09-16T14:44:47.207Z,89.61
2022-09-16T14:47:49.685Z,89.32
2022-09-16T14:50:30.478Z,88.95
2022-09-16T14:52:59.518Z,88.62
2022-09-16T14:55:33.681Z,88.76
2022-09-16T14:58:00.747Z,88.72
2022-09-16T15:00:58.994Z,88.15
2022-09-16T15:03:30.145Z,87.29
2022-09-16T15:06:00.937Z,86.92
2022-09-16T15:08:42.569Z,86.66
2022-09-16T15:11:36.238Z,86.16
2022-09-16T15:14:09.194Z,84.89
2022-09-16T15:16:45.903Z,83.95
2022-09-16T15:19:28.753Z,82.25
2022-09-16T15:21:57.702Z,81.24
2022-09-16T15:24:28.852Z,79.43
2022-09-16T15:26:56.148Z,78.90
2022-09-16T15:29:22.675Z,78.37
2022-09-16T15:31:50.845Z,78.44
2022-09-16T15:34:23.348Z,78.05
2022-09-16T15:37:00.008Z,78.53
2022-09-16T15:39:37.662Z,77.46
2022-09-16T15:42:10.521Z,77.38
2022-09-16T15:44:43.230Z,76.84
2022-09-16T15:47:21.854Z,76.83
2022-09-16T15:50:05.350Z,77.02
2022-09-16T15:52:58.186Z,77.72
2022-09-16T15:55:49.727Z,78.45
2022-09-16T15:58:22.731Z,78.64
2022-09-16T16:01:04.519Z,79.08
2022-09-16T16:03:44.521Z,79.14
2022-09-16T16:06:12.548Z,79.66
2022-09-16T16:08:52.199Z,79.66
2022-09-16T16:11:25.619Z,79.59
2022-09-16T16:13:52.490Z,79.43
2022-09-16T16:16:22.639Z,79.70
2022-09-16T16:18:49.216Z,80.18
2022-09-16T16:21:17.141Z,79.87
2022-09-16T16:23:44.074Z,79.82
2022-09-16T16:26:14.098Z,79.84
2022-09-16T16:28:40.835Z,80.23
2022-09-16T16:31:18.363Z,80.56
2022-09-16T16:33:47.531Z,80.16
2022-09-16T16:36:19.084Z,79.56
2022-09-16T16:38:49.431Z,79.66
2022-09-16T16:41:23.448Z,79.79
2022-09-16T16:43:53.927Z,79.62
2022-09-16T16:46:20.705Z,79.86
2022-09-16T16:48:47.421Z,80.19
2022-09-16T16:51:16.855Z,80.62
2022-09-16T16:53:48.204Z,80.80
2022-09-16T16:56:15.737Z,80.86
2022-09-16T16:58:45.477Z,80.89
2022-09-16T17:01:14.949Z,81.01
2022-09-16T17:03:47.753Z,80.83
2022-09-16T17:06:14.433Z,80.76
2022-09-16T17:08:42.099Z,81.04
2022-09-16T17:11:10.152Z,81.14
2022-09-16T17:13:38.326Z,80.94
2022-09-16T17:16:05.557Z,80.87
2022-09-16T17:18:35.414Z,80.92
2022-09-16T17:21:11.449Z,80.82
2022-09-16T17:23:44.878Z,80.53
2022-09-16T17:26:18.577Z,80.39
2022-09-16T17:28:47.260Z,80.06
2022-09-16T17:31:20.406Z,81.03
2022-09-16T17:33:47.728Z,82.65
2022-09-16T17:36:24.082Z,83.15
2022-09-16T17:38:58.673Z,83.06
2022-09-16T17:41:29.060Z,83.51
2022-09-16T17:43:58.599Z,83.85
2022-09-16T17:46:35.241Z,83.42
2022-09-16T17:49:07.639Z,83.72
2022-09-16T17:51:38.073Z,84.93
2022-09-16T17:54:04.960Z,86.35
2022-09-16T17:56:34.164Z,86.72
2022-09-16T17:59:00.870Z,87.10
2022-09-16T18:01:30.878Z,86.93
2022-09-16T18:04:05.324Z,87.12
2022-09-16T18:06:36.326Z,86.91
2022-09-16T18:09:09.576Z,86.37
2022-09-16T18:11:42.058Z,86.03
2022-09-16T18:14:17.259Z,85.84
2022-09-16T18:16:47.812Z,85.29
2022-09-16T18:19:14.423Z,84.54
2022-09-16T18:21:40.976Z,84.14
2022-09-16T18:24:11.187Z,83.72
2022-09-16T18:26:38.409Z,83.46
2022-09-16T18:29:09.960Z,83.21
2022-09-16T18:31:41.844Z,83.01
2022-09-16T18:34:08.954Z,82.89
2022-09-16T18:36:37.518Z,82.40
2022-09-16T18:39:05.115Z,82.16
2022-09-16T18:41:36.398Z,82.29
2022-09-16T18:44:11.291Z,82.14
2022-09-16T18:46:38.821Z,81.68
2022-09-16T18:49:06.519Z,81.58
2022-09-16T18:51:38.721Z,81.48
2022-09-16T18:54:07.541Z,81.46
2022-09-16T18:56:35.869Z,81.24
2022-09-16T18:59:24.136Z,81.50
2022-09-16T19:01:52.972Z,81.38
2022-09-16T19:04:23.085Z,81.57
2022-09-16T19:06:57.033Z,81.55
2022-09-16T19:09:24.395Z,81.61
2022-09-16T19:11:57.881Z,82.08
2022-09-16T19:14:27.337Z,81.81
2022-09-16T19:16:54.519Z,81.89
2022-09-16T19:19:21.747Z,82.34
2022-09-16T19:21:48.788Z,82.63
2022-09-16T19:24:19.027Z,82.57
2022-09-16T19:26:51.291Z,82.33
2022-09-16T19:29:18.881Z,82.54
2022-09-16T19:31:48.040Z,82.44
2022-09-16T19:34:16.352Z,82.46
2022-09-16T19:36:43.437Z,82.56
2022-09-16T19:39:12.029Z,82.49
2022-09-16T19:41:39.620Z,82.01
2022-09-16T19:44:09.860Z,82.11
2022-09-16T19:46:37.907Z,81.62
2022-09-16T19:49:06.230Z,81.99
2022-09-16T19:51:33.154Z,82.13
2022-09-16T19:54:00.874Z,82.17
2022-09-16T19:56:33.047Z,81.95
2022-09-16T19:59:01.272Z,81.95
2022-09-16T20:01:30.550Z,81.97
2022-09-16T20:03:57.525Z,82.11
2022-09-16T20:06:34.833Z,82.31
2022-09-16T20:09:03.820Z,82.19
2022-09-16T20:11:32.951Z,82.48
2022-09-16T20:14:01.813Z,82.17
2022-09-16T20:16:31.222Z,82.18
2022-09-16T20:18:58.080Z,82.25
2022-09-16T20:21:26.635Z,81.98
2022-09-16T20:23:54.412Z,82.10
2022-09-16T20:26:22.432Z,82.37
2022-09-16T20:28:51.359Z,82.51
2022-09-16T20:31:24.043Z,82.49
2022-09-16T20:33:51.632Z,82.52
2022-09-16T20:36:21.300Z,82.47
2022-09-16T20:38:48.766Z,82.34
2022-09-16T20:41:19.793Z,82.19
2022-09-16T20:43:47.175Z,82.20
2022-09-16T20:46:16.864Z,82.15
2022-09-16T20:48:44.982Z,82.23
2022-09-16T20:51:14.420Z,82.42
2022-09-16T20:53:42.340Z,82.20
2022-09-16T20:56:14.672Z,82.42
2022-09-16T20:58:42.590Z,82.47
2022-09-16T21:01:14.879Z,82.41
2022-09-16T21:03:45.268Z,82.63
2022-09-16T21:06:14.594Z,82.66
2022-09-16T21:08:43.184Z,82.74
2022-09-16T21:11:15.503Z,82.50
2022-09-16T21:13:44.448Z,82.30
2022-09-16T21:16:14.669Z,82.29
2022-09-16T21:18:42.373Z,82.04
2022-09-16T21:21:13.444Z,81.87
2022-09-16T21:23:40.993Z,81.29
2022-09-16T21:26:13.562Z,80.72
2022-09-16T21:28:41.193Z,80.24
2022-09-16T21:31:13.802Z,80.29
2022-09-16T21:33:42.439Z,80.71
2022-09-16T21:36:14.147Z,80.59
2022-09-16T21:38:41.650Z,80.20
2022-09-16T21:41:14.708Z,80.11
2022-09-16T21:43:44.032Z,80.23
2022-09-16T21:46:13.133Z,79.97
2022-09-16T21:48:40.447Z,80.09
2022-09-16T21:51:10.240Z,80.11
2022-09-16T21:53:37.647Z,79.96
2022-09-16T21:56:06.099Z,80.22
2022-09-16T21:58:33.470Z,78.48
2022-09-16T22:01:09.641Z,78.07
2022-09-16T22:03:36.943Z,76.99
2022-09-16T22:06:04.911Z,76.22
2022-09-16T22:08:31.765Z,76.19
2022-09-16T22:11:07.719Z,76.17
2022-09-16T22:13:35.173Z,76.02
2022-09-16T22:16:02.226Z,76.27
2022-09-16T22:18:30.282Z,76.71
2022-09-16T22:21:03.938Z,76.67
2022-09-16T22:23:30.504Z,76.85
2022-09-16T22:25:57.005Z,76.43
2022-09-16T22:28:23.672Z,76.11
2022-09-16T22:30:50.253Z,76.36
2022-09-16T22:33:16.863Z,76.39
2022-09-16T22:35:46.549Z,76.71
2022-09-16T22:38:13.209Z,76.65
2022-09-16T22:40:39.779Z,76.92
2022-09-16T22:43:06.640Z,76.90
2022-09-16T22:45:33.226Z,77.04
2022-09-16T22:47:59.739Z,77.53
2022-09-16T22:50:26.499Z,77.44
2022-09-16T22:52:53.056Z,77.69
2022-09-16T22:55:19.746Z,77.79
2022-09-16T22:57:46.274Z,77.79
2022-09-16T23:00:13.377Z,77.43
2022-09-16T23:02:40.058Z,77.74
2022-09-16T23:05:07.404Z,77.32
2022-09-16T23:07:34.193Z,77.53
2022-09-16T23:10:00.745Z,77.17
2022-09-16T23:12:28.465Z,77.48
2022-09-16T23:14:55.060Z,77.23
2022-09-16T23:17:21.953Z,77.37
2022-09-16T23:19:48.543Z,77.36
2022-09-16T23:22:15.276Z,77.05
2022-09-16T23:24:41.975Z,77.25
2022-09-16T23:27:08.534Z,77.35
2022-09-16T23:29:35.102Z,77.23
2022-09-16T23:32:03.255Z,77.29
2022-09-16T23:34:29.921Z,76.99
2022-09-16T23:36:56.521Z,77.12
2022-09-16T23:39:23.115Z,76.63
2022-09-16T23:41:50.258Z,76.65
2022-09-16T23:44:17.240Z,77.15
2022-09-16T23:46:44.703Z,76.92
2022-09-16T23:49:11.494Z,76.94
2022-09-16T23:51:38.477Z,77.46
2022-09-16T23:54:05.117Z,77.65
2022-09-16T23:56:32.714Z,77.69
2022-09-16T23:59:00.827Z,77.50
